sensor_id;sensor_type;location;lat;lon;timestamp;temperature;humidity
24518;DHT22;12678;51.336;12.406;2023-04-25T00:01:38;9.60;99.90
24518;DHT22;12678;51.336;12.406;2023-04-25T00:04:04;9.70;99.90
24518;DHT22;12678;51.336;12.406;2023-04-25T00:06:34;9.70;99.90
24518;DHT22;12678;51.336;12.406;2023-04-25T00:09:02;9.70;99.90
24518;DHT22;12678;51.336;12.406;2023-04-25T00:11:28;9.70;99.90
24518;DHT22;12678;51.336;12.406;2023-04-25T00:13:56;9.70;99.90
24518;DHT22;12678;51.336;12.406;2023-04-25T00:16:22;9.70;99.90
24518;DHT22;12678;51.336;12.406;2023-04-25T00:18:49;9.70;99.90
24518;DHT22;12678;51.336;12.406;2023-04-25T00:21:19;9.60;99.90
24518;DHT22;12678;51.336;12.406;2023-04-25T00:23:46;9.60;99.90
24518;DHT22;12678;51.336;12.406;2023-04-25T00:26:12;9.50;99.90
24518;DHT22;12678;51.336;12.406;2023-04-25T00:28:38;9.50;99.90
24518;DHT22;12678;51.336;12.406;2023-04-25T00:31:04;9.40;99.90
24518;DHT22;12678;51.336;12.406;2023-04-25T00:33:30;9.30;99.90
24518;DHT22;12678;51.336;12.406;2023-04-25T00:35:56;9.30;99.90
24518;DHT22;12678;51.336;12.406;2023-04-25T00:38:22;9.20;99.90
24518;DHT22;12678;51.336;12.406;2023-04-25T00:40:47;9.10;99.90
24518;DHT22;12678;51.336;12.406;2023-04-25T00:43:13;9.10;99.90
24518;DHT22;12678;51.336;12.406;2023-04-25T00:45:39;9.00;99.90
24518;DHT22;12678;51.336;12.406;2023-04-25T00:48:05;9.00;99.90
24518;DHT22;12678;51.336;12.406;2023-04-25T00:50:33;9.00;99.90
24518;DHT22;12678;51.336;12.406;2023-04-25T00:53:00;9.00;99.90
24518;DHT22;12678;51.336;12.406;2023-04-25T00:55:27;8.90;99.90
24518;DHT22;12678;51.336;12.406;2023-04-25T00:57:52;8.80;99.90
24518;DHT22;12678;51.336;12.406;2023-04-25T01:00:18;8.80;99.90
24518;DHT22;12678;51.336;12.406;2023-04-25T01:02:45;8.80;99.90
24518;DHT22;12678;51.336;12.406;2023-04-25T01:05:11;8.70;99.90
24518;DHT22;12678;51.336;12.406;2023-04-25T01:07:37;8.80;99.90
24518;DHT22;12678;51.336;12.406;2023-04-25T01:10:04;8.70;99.90
24518;DHT22;12678;51.336;12.406;2023-04-25T01:12:40;8.70;99.90
24518;DHT22;12678;51.336;12.406;2023-04-25T01:15:07;8.60;99.90
24518;DHT22;12678;51.336;12.406;2023-04-25T01:17:34;8.60;99.90
24518;DHT22;12678;51.336;12.406;2023-04-25T01:20:03;8.50;99.90
24518;DHT22;12678;51.336;12.406;2023-04-25T01:22:29;8.60;99.90
24518;DHT22;12678;51.336;12.406;2023-04-25T01:24:56;8.50;99.90
24518;DHT22;12678;51.336;12.406;2023-04-25T01:27:22;8.50;99.90
24518;DHT22;12678;51.336;12.406;2023-04-25T01:29:48;8.50;99.90
24518;DHT22;12678;51.336;12.406;2023-04-25T01:32:15;8.40;99.90
24518;DHT22;12678;51.336;12.406;2023-04-25T01:34:41;8.40;99.90
24518;DHT22;12678;51.336;12.406;2023-04-25T01:37:07;8.40;99.90
24518;DHT22;12678;51.336;12.406;2023-04-25T01:39:32;8.40;99.90
24518;DHT22;12678;51.336;12.406;2023-04-25T01:41:59;8.50;99.90
24518;DHT22;12678;51.336;12.406;2023-04-25T01:44:24;8.40;99.90
24518;DHT22;12678;51.336;12.406;2023-04-25T01:46:51;8.50;99.90
24518;DHT22;12678;51.336;12.406;2023-04-25T01:49:17;8.40;99.90
24518;DHT22;12678;51.336;12.406;2023-04-25T01:51:43;8.40;99.90
24518;DHT22;12678;51.336;12.406;2023-04-25T01:54:10;8.40;99.90
24518;DHT22;12678;51.336;12.406;2023-04-25T01:56:37;8.30;99.90
24518;DHT22;12678;51.336;12.406;2023-04-25T01:59:04;8.30;99.90
24518;DHT22;12678;51.336;12.406;2023-04-25T02:01:31;8.40;99.90
24518;DHT22;12678;51.336;12.406;2023-04-25T02:03:57;8.40;99.90
24518;DHT22;12678;51.336;12.406;2023-04-25T02:06:22;8.40;99.90
24518;DHT22;12678;51.336;12.406;2023-04-25T02:08:48;8.40;99.90
24518;DHT22;12678;51.336;12.406;2023-04-25T02:11:14;8.30;99.90
24518;DHT22;12678;51.336;12.406;2023-04-25T02:13:40;8.20;99.90
24518;DHT22;12678;51.336;12.406;2023-04-25T02:16:06;8.20;99.90
24518;DHT22;12678;51.336;12.406;2023-04-25T02:18:31;8.20;99.90
24518;DHT22;12678;51.336;12.406;2023-04-25T02:20:59;8.10;99.90
24518;DHT22;12678;51.336;12.406;2023-04-25T02:23:26;8.20;99.90
24518;DHT22;12678;51.336;12.406;2023-04-25T02:25:52;8.20;99.90
24518;DHT22;12678;51.336;12.406;2023-04-25T02:28:20;8.10;99.90
24518;DHT22;12678;51.336;12.406;2023-04-25T02:30:46;8.10;99.90
24518;DHT22;12678;51.336;12.406;2023-04-25T02:33:11;8.10;99.90
24518;DHT22;12678;51.336;12.406;2023-04-25T02:35:37;8.00;99.90
24518;DHT22;12678;51.336;12.406;2023-04-25T02:38:03;8.00;99.90
24518;DHT22;12678;51.336;12.406;2023-04-25T02:40:28;8.00;99.90
24518;DHT22;12678;51.336;12.406;2023-04-25T02:42:54;8.00;99.90
24518;DHT22;12678;51.336;12.406;2023-04-25T02:45:19;7.90;99.90
24518;DHT22;12678;51.336;12.406;2023-04-25T02:47:45;8.00;99.90
24518;DHT22;12678;51.336;12.406;2023-04-25T02:50:11;8.00;99.90
24518;DHT22;12678;51.336;12.406;2023-04-25T02:52:36;7.90;99.90
24518;DHT22;12678;51.336;12.406;2023-04-25T02:55:02;7.90;99.90
24518;DHT22;12678;51.336;12.406;2023-04-25T02:57:28;7.90;99.90
24518;DHT22;12678;51.336;12.406;2023-04-25T02:59:53;7.90;99.90
24518;DHT22;12678;51.336;12.406;2023-04-25T03:02:19;7.80;99.90
24518;DHT22;12678;51.336;12.406;2023-04-25T03:04:44;7.80;99.90
24518;DHT22;12678;51.336;12.406;2023-04-25T03:07:11;7.80;99.90
24518;DHT22;12678;51.336;12.406;2023-04-25T03:09:37;7.80;99.90
24518;DHT22;12678;51.336;12.406;2023-04-25T03:12:03;7.80;99.90
24518;DHT22;12678;51.336;12.406;2023-04-25T03:14:29;7.70;99.90
24518;DHT22;12678;51.336;12.406;2023-04-25T03:16:54;7.70;99.90
24518;DHT22;12678;51.336;12.406;2023-04-25T03:19:20;7.70;99.90
24518;DHT22;12678;51.336;12.406;2023-04-25T03:21:46;7.70;99.90
24518;DHT22;12678;51.336;12.406;2023-04-25T03:24:12;7.70;99.90
24518;DHT22;12678;51.336;12.406;2023-04-25T03:26:38;7.70;99.90
24518;DHT22;12678;51.336;12.406;2023-04-25T03:29:04;7.70;99.90
24518;DHT22;12678;51.336;12.406;2023-04-25T03:31:30;7.70;99.90
24518;DHT22;12678;51.336;12.406;2023-04-25T03:33:55;7.70;99.90
24518;DHT22;12678;51.336;12.406;2023-04-25T03:36:21;7.70;99.90
24518;DHT22;12678;51.336;12.406;2023-04-25T03:38:46;7.70;99.90
24518;DHT22;12678;51.336;12.406;2023-04-25T03:41:14;7.70;99.90
24518;DHT22;12678;51.336;12.406;2023-04-25T03:43:40;7.70;99.90
24518;DHT22;12678;51.336;12.406;2023-04-25T03:46:05;7.70;99.90
24518;DHT22;12678;51.336;12.406;2023-04-25T03:48:31;7.70;99.90
24518;DHT22;12678;51.336;12.406;2023-04-25T03:50:57;7.70;99.90
24518;DHT22;12678;51.336;12.406;2023-04-25T03:53:22;7.80;99.90
24518;DHT22;12678;51.336;12.406;2023-04-25T03:55:48;7.80;99.90
24518;DHT22;12678;51.336;12.406;2023-04-25T03:58:14;7.70;99.90
24518;DHT22;12678;51.336;12.406;2023-04-25T04:00:39;7.80;99.90
24518;DHT22;12678;51.336;12.406;2023-04-25T04:03:05;7.80;99.90
24518;DHT22;12678;51.336;12.406;2023-04-25T04:05:31;7.90;99.90
24518;DHT22;12678;51.336;12.406;2023-04-25T04:07:57;8.00;99.90
24518;DHT22;12678;51.336;12.406;2023-04-25T04:10:23;8.00;99.90
24518;DHT22;12678;51.336;12.406;2023-04-25T04:12:49;8.10;99.90
24518;DHT22;12678;51.336;12.406;2023-04-25T04:15:14;8.00;99.90
24518;DHT22;12678;51.336;12.406;2023-04-25T04:17:40;8.00;99.90
24518;DHT22;12678;51.336;12.406;2023-04-25T04:20:06;8.00;99.90
24518;DHT22;12678;51.336;12.406;2023-04-25T04:22:33;8.00;99.90
24518;DHT22;12678;51.336;12.406;2023-04-25T04:24:59;8.00;99.90
24518;DHT22;12678;51.336;12.406;2023-04-25T04:27:25;8.00;99.90
24518;DHT22;12678;51.336;12.406;2023-04-25T04:29:50;8.00;99.90
24518;DHT22;12678;51.336;12.406;2023-04-25T04:32:18;7.90;99.90
24518;DHT22;12678;51.336;12.406;2023-04-25T04:34:44;8.00;99.90
24518;DHT22;12678;51.336;12.406;2023-04-25T04:37:10;8.00;99.90
24518;DHT22;12678;51.336;12.406;2023-04-25T04:39:38;8.10;99.90
24518;DHT22;12678;51.336;12.406;2023-04-25T04:42:03;8.20;99.90
24518;DHT22;12678;51.336;12.406;2023-04-25T04:44:30;8.60;99.90
24518;DHT22;12678;51.336;12.406;2023-04-25T04:47:01;9.30;99.90
24518;DHT22;12678;51.336;12.406;2023-04-25T04:49:27;9.80;99.90
24518;DHT22;12678;51.336;12.406;2023-04-25T04:51:53;10.00;99.90
24518;DHT22;12678;51.336;12.406;2023-04-25T04:54:22;10.40;99.90
24518;DHT22;12678;51.336;12.406;2023-04-25T04:56:47;10.90;99.90
24518;DHT22;12678;51.336;12.406;2023-04-25T04:59:13;11.20;99.90
24518;DHT22;12678;51.336;12.406;2023-04-25T05:01:40;11.20;99.90
24518;DHT22;12678;51.336;12.406;2023-04-25T05:04:05;11.10;99.90
24518;DHT22;12678;51.336;12.406;2023-04-25T05:06:31;11.20;99.90
24518;DHT22;12678;51.336;12.406;2023-04-25T05:08:57;11.60;99.90
24518;DHT22;12678;51.336;12.406;2023-04-25T05:11:24;12.00;99.90
24518;DHT22;12678;51.336;12.406;2023-04-25T05:13:52;12.10;99.90
24518;DHT22;12678;51.336;12.406;2023-04-25T05:16:18;12.10;99.90
24518;DHT22;12678;51.336;12.406;2023-04-25T05:18:44;11.90;99.90
24518;DHT22;12678;51.336;12.406;2023-04-25T05:21:10;11.70;99.90
24518;DHT22;12678;51.336;12.406;2023-04-25T05:23:36;11.60;99.90
24518;DHT22;12678;51.336;12.406;2023-04-25T05:26:02;11.30;99.90
24518;DHT22;12678;51.336;12.406;2023-04-25T05:28:27;11.10;99.90
24518;DHT22;12678;51.336;12.406;2023-04-25T05:30:53;10.80;99.90
24518;DHT22;12678;51.336;12.406;2023-04-25T05:33:19;10.50;99.90
24518;DHT22;12678;51.336;12.406;2023-04-25T05:35:45;10.50;99.90
24518;DHT22;12678;51.336;12.406;2023-04-25T05:38:11;10.30;99.90
24518;DHT22;12678;51.336;12.406;2023-04-25T05:40:38;10.30;99.90
24518;DHT22;12678;51.336;12.406;2023-04-25T05:43:03;10.30;99.90
24518;DHT22;12678;51.336;12.406;2023-04-25T05:45:29;10.10;99.90
24518;DHT22;12678;51.336;12.406;2023-04-25T05:47:55;10.10;99.90
24518;DHT22;12678;51.336;12.406;2023-04-25T05:50:20;10.10;99.90
24518;DHT22;12678;51.336;12.406;2023-04-25T05:52:46;10.10;99.90
24518;DHT22;12678;51.336;12.406;2023-04-25T05:55:12;10.20;99.90
24518;DHT22;12678;51.336;12.406;2023-04-25T05:57:39;10.30;99.90
24518;DHT22;12678;51.336;12.406;2023-04-25T06:00:08;10.20;99.90
24518;DHT22;12678;51.336;12.406;2023-04-25T06:02:34;10.20;99.90
24518;DHT22;12678;51.336;12.406;2023-04-25T06:05:00;10.40;99.90
24518;DHT22;12678;51.336;12.406;2023-04-25T06:07:29;10.40;99.90
24518;DHT22;12678;51.336;12.406;2023-04-25T06:09:55;10.40;99.90
24518;DHT22;12678;51.336;12.406;2023-04-25T06:12:21;10.40;99.90
24518;DHT22;12678;51.336;12.406;2023-04-25T06:14:47;10.60;99.90
24518;DHT22;12678;51.336;12.406;2023-04-25T06:17:13;10.70;99.90
24518;DHT22;12678;51.336;12.406;2023-04-25T06:19:39;10.80;99.90
24518;DHT22;12678;51.336;12.406;2023-04-25T06:22:04;10.80;99.90
24518;DHT22;12678;51.336;12.406;2023-04-25T06:24:31;10.90;99.90
24518;DHT22;12678;51.336;12.406;2023-04-25T06:26:56;10.90;99.90
24518;DHT22;12678;51.336;12.406;2023-04-25T06:29:22;10.90;99.90
24518;DHT22;12678;51.336;12.406;2023-04-25T06:31:47;11.10;99.90
24518;DHT22;12678;51.336;12.406;2023-04-25T06:34:13;11.10;99.90
24518;DHT22;12678;51.336;12.406;2023-04-25T06:36:39;11.30;99.90
24518;DHT22;12678;51.336;12.406;2023-04-25T06:39:07;11.40;99.90
24518;DHT22;12678;51.336;12.406;2023-04-25T06:41:35;11.60;99.90
24518;DHT22;12678;51.336;12.406;2023-04-25T06:44:04;11.60;99.90
24518;DHT22;12678;51.336;12.406;2023-04-25T06:46:31;11.60;99.90
24518;DHT22;12678;51.336;12.406;2023-04-25T06:48:58;11.40;99.90
24518;DHT22;12678;51.336;12.406;2023-04-25T06:51:23;11.40;99.90
24518;DHT22;12678;51.336;12.406;2023-04-25T06:53:50;11.40;99.90
24518;DHT22;12678;51.336;12.406;2023-04-25T06:56:16;11.30;99.90
24518;DHT22;12678;51.336;12.406;2023-04-25T06:58:45;11.20;99.90
24518;DHT22;12678;51.336;12.406;2023-04-25T07:01:10;11.20;99.90
24518;DHT22;12678;51.336;12.406;2023-04-25T07:03:36;11.00;99.90
24518;DHT22;12678;51.336;12.406;2023-04-25T07:06:02;11.00;99.90
24518;DHT22;12678;51.336;12.406;2023-04-25T07:08:29;11.00;99.90
24518;DHT22;12678;51.336;12.406;2023-04-25T07:10:57;11.00;99.90
24518;DHT22;12678;51.336;12.406;2023-04-25T07:13:23;10.90;99.90
24518;DHT22;12678;51.336;12.406;2023-04-25T07:15:49;10.80;99.90
24518;DHT22;12678;51.336;12.406;2023-04-25T07:18:15;10.80;99.90
24518;DHT22;12678;51.336;12.406;2023-04-25T07:20:41;10.80;99.90
24518;DHT22;12678;51.336;12.406;2023-04-25T07:23:07;10.70;99.90
24518;DHT22;12678;51.336;12.406;2023-04-25T07:25:32;10.50;99.90
24518;DHT22;12678;51.336;12.406;2023-04-25T07:27:58;10.50;99.90
24518;DHT22;12678;51.336;12.406;2023-04-25T07:30:24;10.50;99.90
24518;DHT22;12678;51.336;12.406;2023-04-25T07:32:50;10.50;99.90
24518;DHT22;12678;51.336;12.406;2023-04-25T07:35:16;10.60;99.90
24518;DHT22;12678;51.336;12.406;2023-04-25T07:37:43;10.50;99.90
24518;DHT22;12678;51.336;12.406;2023-04-25T07:40:09;10.60;99.90
24518;DHT22;12678;51.336;12.406;2023-04-25T07:42:35;10.50;99.90
24518;DHT22;12678;51.336;12.406;2023-04-25T07:45:01;10.60;99.90
24518;DHT22;12678;51.336;12.406;2023-04-25T07:47:28;10.60;99.90
24518;DHT22;12678;51.336;12.406;2023-04-25T07:49:54;10.50;99.90
24518;DHT22;12678;51.336;12.406;2023-04-25T07:52:21;10.60;99.90
24518;DHT22;12678;51.336;12.406;2023-04-25T07:54:48;10.50;99.90
24518;DHT22;12678;51.336;12.406;2023-04-25T07:57:14;10.50;99.90
24518;DHT22;12678;51.336;12.406;2023-04-25T07:59:42;10.50;99.90
24518;DHT22;12678;51.336;12.406;2023-04-25T08:02:08;10.40;99.90
24518;DHT22;12678;51.336;12.406;2023-04-25T08:04:33;10.20;99.90
24518;DHT22;12678;51.336;12.406;2023-04-25T08:07:00;10.20;99.90
24518;DHT22;12678;51.336;12.406;2023-04-25T08:09:25;10.20;99.90
24518;DHT22;12678;51.336;12.406;2023-04-25T08:11:51;10.20;99.90
24518;DHT22;12678;51.336;12.406;2023-04-25T08:14:17;10.10;99.90
24518;DHT22;12678;51.336;12.406;2023-04-25T08:16:43;10.10;99.90
24518;DHT22;12678;51.336;12.406;2023-04-25T08:19:10;10.20;99.90
24518;DHT22;12678;51.336;12.406;2023-04-25T08:21:36;10.30;99.90
24518;DHT22;12678;51.336;12.406;2023-04-25T08:24:05;10.30;99.90
24518;DHT22;12678;51.336;12.406;2023-04-25T08:26:31;10.40;99.90
24518;DHT22;12678;51.336;12.406;2023-04-25T08:28:57;10.40;99.90
24518;DHT22;12678;51.336;12.406;2023-04-25T08:31:25;10.40;99.90
24518;DHT22;12678;51.336;12.406;2023-04-25T08:33:54;10.50;99.90
24518;DHT22;12678;51.336;12.406;2023-04-25T08:36:19;10.60;99.90
24518;DHT22;12678;51.336;12.406;2023-04-25T08:38:45;10.70;99.90
24518;DHT22;12678;51.336;12.406;2023-04-25T08:41:11;10.80;99.90
24518;DHT22;12678;51.336;12.406;2023-04-25T08:43:37;10.90;99.90
24518;DHT22;12678;51.336;12.406;2023-04-25T08:46:10;10.80;99.90
24518;DHT22;12678;51.336;12.406;2023-04-25T08:48:42;10.80;99.90
24518;DHT22;12678;51.336;12.406;2023-04-25T08:51:23;10.80;99.90
24518;DHT22;12678;51.336;12.406;2023-04-25T08:53:54;10.80;99.90
24518;DHT22;12678;51.336;12.406;2023-04-25T08:56:20;10.80;99.90
24518;DHT22;12678;51.336;12.406;2023-04-25T08:58:49;10.80;99.90
24518;DHT22;12678;51.336;12.406;2023-04-25T09:01:18;10.80;99.90
24518;DHT22;12678;51.336;12.406;2023-04-25T09:03:45;10.90;99.90
24518;DHT22;12678;51.336;12.406;2023-04-25T09:06:14;10.90;99.90
24518;DHT22;12678;51.336;12.406;2023-04-25T09:08:46;11.00;99.90
24518;DHT22;12678;51.336;12.406;2023-04-25T09:11:15;11.00;99.90
24518;DHT22;12678;51.336;12.406;2023-04-25T09:13:43;11.00;99.90
24518;DHT22;12678;51.336;12.406;2023-04-25T09:16:09;11.10;99.90
24518;DHT22;12678;51.336;12.406;2023-04-25T09:18:35;11.20;99.90
24518;DHT22;12678;51.336;12.406;2023-04-25T09:21:07;11.30;99.90
24518;DHT22;12678;51.336;12.406;2023-04-25T09:23:44;11.60;99.90
24518;DHT22;12678;51.336;12.406;2023-04-25T09:26:10;11.60;99.90
24518;DHT22;12678;51.336;12.406;2023-04-25T09:28:39;11.60;99.90
24518;DHT22;12678;51.336;12.406;2023-04-25T09:31:05;11.60;99.90
24518;DHT22;12678;51.336;12.406;2023-04-25T09:33:32;11.60;99.90
24518;DHT22;12678;51.336;12.406;2023-04-25T09:36:09;11.50;99.90
24518;DHT22;12678;51.336;12.406;2023-04-25T09:38:46;11.50;99.90
24518;DHT22;12678;51.336;12.406;2023-04-25T09:41:12;11.60;99.90
24518;DHT22;12678;51.336;12.406;2023-04-25T09:43:40;11.50;99.90
24518;DHT22;12678;51.336;12.406;2023-04-25T09:46:12;11.50;99.90
24518;DHT22;12678;51.336;12.406;2023-04-25T09:48:38;11.50;99.90
24518;DHT22;12678;51.336;12.406;2023-04-25T09:51:09;11.40;99.90
24518;DHT22;12678;51.336;12.406;2023-04-25T09:53:46;11.30;99.90
24518;DHT22;12678;51.336;12.406;2023-04-25T09:56:15;11.20;99.90
24518;DHT22;12678;51.336;12.406;2023-04-25T09:58:41;11.10;99.90
24518;DHT22;12678;51.336;12.406;2023-04-25T10:01:10;11.00;99.90
24518;DHT22;12678;51.336;12.406;2023-04-25T10:03:38;11.00;99.90
24518;DHT22;12678;51.336;12.406;2023-04-25T10:06:12;11.00;99.90
24518;DHT22;12678;51.336;12.406;2023-04-25T10:08:40;11.10;99.90
24518;DHT22;12678;51.336;12.406;2023-04-25T10:11:08;11.10;99.90
24518;DHT22;12678;51.336;12.406;2023-04-25T10:13:35;11.00;99.90
24518;DHT22;12678;51.336;12.406;2023-04-25T10:16:04;11.10;99.90
24518;DHT22;12678;51.336;12.406;2023-04-25T10:18:32;11.10;99.90
24518;DHT22;12678;51.336;12.406;2023-04-25T10:21:00;11.10;99.90
24518;DHT22;12678;51.336;12.406;2023-04-25T10:23:27;11.00;99.90
24518;DHT22;12678;51.336;12.406;2023-04-25T10:25:55;11.20;99.90
24518;DHT22;12678;51.336;12.406;2023-04-25T10:28:22;11.20;99.90
24518;DHT22;12678;51.336;12.406;2023-04-25T10:33:37;11.40;99.90
24518;DHT22;12678;51.336;12.406;2023-04-25T10:36:23;11.50;99.90
24518;DHT22;12678;51.336;12.406;2023-04-25T10:38:50;11.70;99.90
24518;DHT22;12678;51.336;12.406;2023-04-25T10:41:19;11.70;99.90
24518;DHT22;12678;51.336;12.406;2023-04-25T10:43:46;11.60;99.90
24518;DHT22;12678;51.336;12.406;2023-04-25T10:48:47;11.40;99.90
24518;DHT22;12678;51.336;12.406;2023-04-25T10:51:18;11.30;99.90
24518;DHT22;12678;51.336;12.406;2023-04-25T10:53:45;11.30;99.90
24518;DHT22;12678;51.336;12.406;2023-04-25T10:56:17;11.30;99.90
24518;DHT22;12678;51.336;12.406;2023-04-25T10:58:47;11.20;99.90
24518;DHT22;12678;51.336;12.406;2023-04-25T11:01:14;11.10;99.90
24518;DHT22;12678;51.336;12.406;2023-04-25T11:03:43;11.00;99.90
24518;DHT22;12678;51.336;12.406;2023-04-25T11:06:22;10.90;99.90
24518;DHT22;12678;51.336;12.406;2023-04-25T11:08:54;11.00;99.90
24518;DHT22;12678;51.336;12.406;2023-04-25T11:11:20;11.10;99.90
24518;DHT22;12678;51.336;12.406;2023-04-25T11:13:49;11.00;99.90
24518;DHT22;12678;51.336;12.406;2023-04-25T11:16:16;11.00;99.90
24518;DHT22;12678;51.336;12.406;2023-04-25T11:18:43;11.00;99.90
24518;DHT22;12678;51.336;12.406;2023-04-25T11:21:10;11.10;99.90
24518;DHT22;12678;51.336;12.406;2023-04-25T11:23:35;11.00;99.90
24518;DHT22;12678;51.336;12.406;2023-04-25T11:26:02;11.00;99.90
24518;DHT22;12678;51.336;12.406;2023-04-25T11:28:28;11.00;99.90
24518;DHT22;12678;51.336;12.406;2023-04-25T11:30:55;10.90;99.90
24518;DHT22;12678;51.336;12.406;2023-04-25T11:33:25;10.90;99.90
24518;DHT22;12678;51.336;12.406;2023-04-25T11:35:54;10.90;99.90
24518;DHT22;12678;51.336;12.406;2023-04-25T11:38:24;11.00;99.90
24518;DHT22;12678;51.336;12.406;2023-04-25T11:40:52;11.00;99.90
24518;DHT22;12678;51.336;12.406;2023-04-25T11:43:20;11.00;99.90
24518;DHT22;12678;51.336;12.406;2023-04-25T11:45:49;11.10;99.90
24518;DHT22;12678;51.336;12.406;2023-04-25T11:48:17;11.00;99.90
24518;DHT22;12678;51.336;12.406;2023-04-25T11:50:43;11.10;99.90
24518;DHT22;12678;51.336;12.406;2023-04-25T11:53:09;11.20;99.90
24518;DHT22;12678;51.336;12.406;2023-04-25T11:55:36;11.20;99.90
24518;DHT22;12678;51.336;12.406;2023-04-25T11:58:01;11.30;99.90
24518;DHT22;12678;51.336;12.406;2023-04-25T12:00:29;11.40;99.90
24518;DHT22;12678;51.336;12.406;2023-04-25T12:02:56;11.40;99.90
24518;DHT22;12678;51.336;12.406;2023-04-25T12:05:30;11.50;99.90
24518;DHT22;12678;51.336;12.406;2023-04-25T12:08:09;11.50;99.90
24518;DHT22;12678;51.336;12.406;2023-04-25T12:10:38;11.50;99.90
24518;DHT22;12678;51.336;12.406;2023-04-25T12:13:26;11.40;99.90
24518;DHT22;12678;51.336;12.406;2023-04-25T12:15:56;11.40;99.90
24518;DHT22;12678;51.336;12.406;2023-04-25T12:18:24;11.40;99.90
24518;DHT22;12678;51.336;12.406;2023-04-25T12:20:53;11.40;99.90
24518;DHT22;12678;51.336;12.406;2023-04-25T12:23:25;11.50;99.90
24518;DHT22;12678;51.336;12.406;2023-04-25T12:25:53;11.50;99.90
24518;DHT22;12678;51.336;12.406;2023-04-25T12:28:23;11.70;99.90
24518;DHT22;12678;51.336;12.406;2023-04-25T12:31:00;11.80;99.90
24518;DHT22;12678;51.336;12.406;2023-04-25T12:33:35;11.90;99.90
24518;DHT22;12678;51.336;12.406;2023-04-25T12:36:03;11.90;99.90
24518;DHT22;12678;51.336;12.406;2023-04-25T12:38:39;11.90;99.60
24518;DHT22;12678;51.336;12.406;2023-04-25T12:41:09;11.80;98.90
24518;DHT22;12678;51.336;12.406;2023-04-25T12:43:34;11.70;98.90
24518;DHT22;12678;51.336;12.406;2023-04-25T12:46:01;11.60;99.40
24518;DHT22;12678;51.336;12.406;2023-04-25T12:48:27;11.50;99.60
24518;DHT22;12678;51.336;12.406;2023-04-25T12:50:53;11.40;99.30
24518;DHT22;12678;51.336;12.406;2023-04-25T12:53:22;11.40;99.40
24518;DHT22;12678;51.336;12.406;2023-04-25T12:55:50;11.30;98.70
24518;DHT22;12678;51.336;12.406;2023-04-25T12:58:17;11.30;99.60
24518;DHT22;12678;51.336;12.406;2023-04-25T13:00:43;11.30;97.90
24518;DHT22;12678;51.336;12.406;2023-04-25T13:03:09;11.20;97.60
24518;DHT22;12678;51.336;12.406;2023-04-25T13:05:37;11.20;96.70
24518;DHT22;12678;51.336;12.406;2023-04-25T13:08:07;11.20;96.10
24518;DHT22;12678;51.336;12.406;2023-04-25T13:10:32;11.20;95.60
24518;DHT22;12678;51.336;12.406;2023-04-25T13:12:59;11.20;95.30
24518;DHT22;12678;51.336;12.406;2023-04-25T13:15:26;11.20;94.80
24518;DHT22;12678;51.336;12.406;2023-04-25T13:17:52;11.20;94.00
24518;DHT22;12678;51.336;12.406;2023-04-25T13:20:18;11.20;93.20
24518;DHT22;12678;51.336;12.406;2023-04-25T13:22:47;11.20;92.90
24518;DHT22;12678;51.336;12.406;2023-04-25T13:25:13;11.10;92.50
24518;DHT22;12678;51.336;12.406;2023-04-25T13:27:39;11.10;92.60
24518;DHT22;12678;51.336;12.406;2023-04-25T13:30:06;11.10;92.50
24518;DHT22;12678;51.336;12.406;2023-04-25T13:32:37;11.10;93.20
24518;DHT22;12678;51.336;12.406;2023-04-25T13:35:08;11.10;93.00
24518;DHT22;12678;51.336;12.406;2023-04-25T13:37:35;11.20;92.00
24518;DHT22;12678;51.336;12.406;2023-04-25T13:40:06;11.40;91.90
24518;DHT22;12678;51.336;12.406;2023-04-25T13:42:34;11.50;91.30
24518;DHT22;12678;51.336;12.406;2023-04-25T13:45:00;11.70;92.00
24518;DHT22;12678;51.336;12.406;2023-04-25T13:47:26;11.80;91.90
24518;DHT22;12678;51.336;12.406;2023-04-25T13:49:52;12.00;92.00
24518;DHT22;12678;51.336;12.406;2023-04-25T13:52:18;12.10;89.50
24518;DHT22;12678;51.336;12.406;2023-04-25T13:54:44;12.00;90.50
24518;DHT22;12678;51.336;12.406;2023-04-25T13:57:10;11.90;91.00
24518;DHT22;12678;51.336;12.406;2023-04-25T13:59:37;11.90;91.40
24518;DHT22;12678;51.336;12.406;2023-04-25T14:02:03;11.90;91.90
24518;DHT22;12678;51.336;12.406;2023-04-25T14:04:29;11.90;90.90
24518;DHT22;12678;51.336;12.406;2023-04-25T14:06:55;11.90;90.20
24518;DHT22;12678;51.336;12.406;2023-04-25T14:09:21;12.00;89.90
24518;DHT22;12678;51.336;12.406;2023-04-25T14:11:51;12.10;89.00
24518;DHT22;12678;51.336;12.406;2023-04-25T14:14:18;12.00;88.50
24518;DHT22;12678;51.336;12.406;2023-04-25T14:16:46;12.00;88.50
24518;DHT22;12678;51.336;12.406;2023-04-25T14:19:14;11.90;85.40
24518;DHT22;12678;51.336;12.406;2023-04-25T14:21:41;11.90;83.50
24518;DHT22;12678;51.336;12.406;2023-04-25T14:24:10;11.90;80.70
24518;DHT22;12678;51.336;12.406;2023-04-25T14:26:37;11.90;80.50
24518;DHT22;12678;51.336;12.406;2023-04-25T14:29:06;11.90;80.10
24518;DHT22;12678;51.336;12.406;2023-04-25T14:31:33;11.90;78.70
24518;DHT22;12678;51.336;12.406;2023-04-25T14:33:59;11.90;80.70
24518;DHT22;12678;51.336;12.406;2023-04-25T14:36:25;11.90;81.00
24518;DHT22;12678;51.336;12.406;2023-04-25T14:38:52;11.80;81.30
24518;DHT22;12678;51.336;12.406;2023-04-25T14:41:17;11.90;81.20
24518;DHT22;12678;51.336;12.406;2023-04-25T14:43:43;11.80;82.10
24518;DHT22;12678;51.336;12.406;2023-04-25T14:46:10;11.90;83.00
24518;DHT22;12678;51.336;12.406;2023-04-25T14:48:36;11.90;80.40
24518;DHT22;12678;51.336;12.406;2023-04-25T14:51:02;11.90;78.80
24518;DHT22;12678;51.336;12.406;2023-04-25T14:53:28;12.00;78.00
24518;DHT22;12678;51.336;12.406;2023-04-25T14:55:54;12.00;75.40
24518;DHT22;12678;51.336;12.406;2023-04-25T14:58:19;12.10;75.50
24518;DHT22;12678;51.336;12.406;2023-04-25T15:00:46;12.10;75.80
24518;DHT22;12678;51.336;12.406;2023-04-25T15:03:12;12.10;77.40
24518;DHT22;12678;51.336;12.406;2023-04-25T15:05:42;12.10;78.60
24518;DHT22;12678;51.336;12.406;2023-04-25T15:08:08;12.00;79.30
24518;DHT22;12678;51.336;12.406;2023-04-25T15:10:34;11.90;80.80
24518;DHT22;12678;51.336;12.406;2023-04-25T15:13:00;11.90;82.70
24518;DHT22;12678;51.336;12.406;2023-04-25T15:15:26;11.90;82.90
24518;DHT22;12678;51.336;12.406;2023-04-25T15:17:52;11.90;84.00
24518;DHT22;12678;51.336;12.406;2023-04-25T15:20:20;11.80;82.40
24518;DHT22;12678;51.336;12.406;2023-04-25T15:22:46;11.70;83.00
24518;DHT22;12678;51.336;12.406;2023-04-25T15:25:15;11.70;83.70